sensor_id;sensor_type;location;lat;lon;timestamp;pressure;altitude;pressure_sealevel;temperature;humidity
55077;BME280;40971;44.702;11.030;2023-05-10T00:07:51;101055.69;;;14.69;82.22
55077;BME280;40971;44.702;11.030;2023-05-10T00:17:54;101055.91;;;14.67;78.73
55077;BME280;40971;44.702;11.030;2023-05-10T00:27:58;101033.53;;;14.40;81.35
55077;BME280;40971;44.702;11.030;2023-05-10T00:37:59;101036.09;;;14.48;84.25
55077;BME280;40971;44.702;11.030;2023-05-10T00:48:01;101024.84;;;14.32;87.26
55077;BME280;40971;44.702;11.030;2023-05-10T00:58:04;101013.63;;;14.44;87.64
55077;BME280;40971;44.702;11.030;2023-05-10T01:08:06;101022.19;;;14.46;87.95
55077;BME280;40971;44.702;11.030;2023-05-10T01:18:10;101016.38;;;14.51;88.41
55077;BME280;40971;44.702;11.030;2023-05-10T01:48:48;101008.50;;;14.06;86.90
55077;BME280;40971;44.702;11.030;2023-05-10T01:58:52;101024.03;;;13.86;88.12
55077;BME280;40971;44.702;11.030;2023-05-10T02:08:55;101048.38;;;13.96;89.48
55077;BME280;40971;44.702;11.030;2023-05-10T02:18:59;101032.59;;;13.88;90.76
55077;BME280;40971;44.702;11.030;2023-05-10T02:29:03;101015.44;;;13.61;90.92
55077;BME280;40971;44.702;11.030;2023-05-10T02:39:09;101018.63;;;13.57;91.52
55077;BME280;40971;44.702;11.030;2023-05-10T02:49:15;101043.91;;;13.74;92.48
55077;BME280;40971;44.702;11.030;2023-05-10T02:59:17;101042.00;;;13.68;93.16
55077;BME280;40971;44.702;11.030;2023-05-10T03:09:18;101029.97;;;13.34;94.32
55077;BME280;40971;44.702;11.030;2023-05-10T03:19:26;101021.53;;;13.39;94.43
55077;BME280;40971;44.702;11.030;2023-05-10T03:29:29;100995.09;;;13.16;94.15
55077;BME280;40971;44.702;11.030;2023-05-10T03:39:34;100999.38;;;13.17;93.96
55077;BME280;40971;44.702;11.030;2023-05-10T03:49:35;100991.81;;;13.06;94.95
55077;BME280;40971;44.702;11.030;2023-05-10T03:59:36;100991.81;;;12.98;94.03
55077;BME280;40971;44.702;11.030;2023-05-10T04:09:40;100994.84;;;12.87;94.82
55077;BME280;40971;44.702;11.030;2023-05-10T04:19:42;100984.50;;;12.77;94.85
55077;BME280;40971;44.702;11.030;2023-05-10T04:29:43;100989.66;;;12.63;95.14
55077;BME280;40971;44.702;11.030;2023-05-10T04:39:46;100987.16;;;12.77;95.55
55077;BME280;40971;44.702;11.030;2023-05-10T04:49:49;100983.38;;;12.72;94.89
55077;BME280;40971;44.702;11.030;2023-05-10T04:59:52;100975.13;;;12.75;95.44
55077;BME280;40971;44.702;11.030;2023-05-10T05:09:55;100981.00;;;12.85;95.08
55077;BME280;40971;44.702;11.030;2023-05-10T05:20:06;100976.75;;;12.84;96.15
55077;BME280;40971;44.702;11.030;2023-05-10T05:30:10;100965.06;;;12.78;96.03
55077;BME280;40971;44.702;11.030;2023-05-10T05:40:13;100954.09;;;12.59;95.19
55077;BME280;40971;44.702;11.030;2023-05-10T05:50:15;100962.69;;;12.53;94.33
55077;BME280;40971;44.702;11.030;2023-05-10T06:00:16;100964.97;;;12.56;94.24
55077;BME280;40971;44.702;11.030;2023-05-10T06:10:17;100996.38;;;12.73;94.18
55077;BME280;40971;44.702;11.030;2023-05-10T06:20:20;100989.78;;;12.77;95.76
55077;BME280;40971;44.702;11.030;2023-05-10T06:30:23;100992.25;;;12.79;95.86
55077;BME280;40971;44.702;11.030;2023-05-10T06:40:28;101001.13;;;12.86;96.00
55077;BME280;40971;44.702;11.030;2023-05-10T06:50:31;100996.50;;;12.88;96.63
55077;BME280;40971;44.702;11.030;2023-05-10T07:00:34;101008.06;;;12.79;95.81
55077;BME280;40971;44.702;11.030;2023-05-10T07:10:35;100997.41;;;12.56;96.50
55077;BME280;40971;44.702;11.030;2023-05-10T07:20:37;101009.81;;;12.56;96.69
55077;BME280;40971;44.702;11.030;2023-05-10T07:30:38;101015.44;;;12.45;96.61
55077;BME280;40971;44.702;11.030;2023-05-10T07:40:40;101011.00;;;12.29;97.29
55077;BME280;40971;44.702;11.030;2023-05-10T07:50:41;101007.19;;;12.32;97.43
55077;BME280;40971;44.702;11.030;2023-05-10T08:00:42;101017.75;;;12.23;96.78
55077;BME280;40971;44.702;11.030;2023-05-10T08:10:44;101002.47;;;12.03;97.23
55077;BME280;40971;44.702;11.030;2023-05-10T08:20:47;101026.00;;;11.96;97.36
55077;BME280;40971;44.702;11.030;2023-05-10T08:30:51;101041.31;;;11.93;96.34
55077;BME280;40971;44.702;11.030;2023-05-10T08:40:54;101034.75;;;11.97;96.64
55077;BME280;40971;44.702;11.030;2023-05-10T08:51:00;101047.41;;;11.93;95.81
55077;BME280;40971;44.702;11.030;2023-05-10T09:01:04;101062.25;;;11.94;96.09
55077;BME280;40971;44.702;11.030;2023-05-10T09:11:07;101059.22;;;11.73;96.66
55077;BME280;40971;44.702;11.030;2023-05-10T09:21:10;101065.31;;;11.74;96.47
55077;BME280;40971;44.702;11.030;2023-05-10T09:31:14;101071.09;;;11.69;96.32
55077;BME280;40971;44.702;11.030;2023-05-10T09:41:21;101077.63;;;11.65;96.36
55077;BME280;40971;44.702;11.030;2023-05-10T09:51:24;101092.44;;;11.66;96.80
55077;BME280;40971;44.702;11.030;2023-05-10T10:01:29;101098.19;;;11.61;96.16
55077;BME280;40971;44.702;11.030;2023-05-10T10:11:33;101111.19;;;11.63;96.13
55077;BME280;40971;44.702;11.030;2023-05-10T10:21:35;101105.09;;;11.54;95.90
55077;BME280;40971;44.702;11.030;2023-05-10T10:31:46;101113.50;;;11.66;96.00
55077;BME280;40971;44.702;11.030;2023-05-10T10:41:56;101118.00;;;11.74;96.66
55077;BME280;40971;44.702;11.030;2023-05-10T10:52:24;101127.25;;;11.78;96.59
55077;BME280;40971;44.702;11.030;2023-05-10T11:02:56;101118.84;;;11.82;96.47
55077;BME280;40971;44.702;11.030;2023-05-10T11:13:00;101124.78;;;11.92;97.05
55077;BME280;40971;44.702;11.030;2023-05-10T11:23:13;101119.03;;;11.89;97.47
55077;BME280;40971;44.702;11.030;2023-05-10T11:33:20;101113.59;;;11.90;96.70
55077;BME280;40971;44.702;11.030;2023-05-10T11:43:23;101115.25;;;11.91;95.55
55077;BME280;40971;44.702;11.030;2023-05-10T11:53:30;101120.53;;;11.91;95.64
55077;BME280;40971;44.702;11.030;2023-05-10T12:03:31;101119.88;;;11.97;95.50
55077;BME280;40971;44.702;11.030;2023-05-10T12:13:39;101118.56;;;12.17;96.54
55077;BME280;40971;44.702;11.030;2023-05-10T12:23:52;101107.06;;;12.26;96.90
55077;BME280;40971;44.702;11.030;2023-05-10T12:33:56;101109.66;;;12.51;96.40
55077;BME280;40971;44.702;11.030;2023-05-10T12:43:59;101112.47;;;12.57;95.69
55077;BME280;40971;44.702;11.030;2023-05-10T12:54:02;101108.03;;;12.66;96.10
55077;BME280;40971;44.702;11.030;2023-05-10T13:04:06;101101.91;;;12.73;96.23
55077;BME280;40971;44.702;11.030;2023-05-10T13:14:10;101103.84;;;12.88;96.26
55077;BME280;40971;44.702;11.030;2023-05-10T13:24:12;101091.81;;;12.85;96.36
55077;BME280;40971;44.702;11.030;2023-05-10T13:34:17;101083.88;;;12.93;95.84
55077;BME280;40971;44.702;11.030;2023-05-10T13:44:21;101066.44;;;12.92;96.09
55077;BME280;40971;44.702;11.030;2023-05-10T13:54:25;101061.16;;;12.92;96.79
55077;BME280;40971;44.702;11.030;2023-05-10T14:04:29;101053.56;;;12.89;97.36
55077;BME280;40971;44.702;11.030;2023-05-10T14:14:32;101055.16;;;12.98;96.57
55077;BME280;40971;44.702;11.030;2023-05-10T14:24:33;101037.66;;;13.13;96.88
55077;BME280;40971;44.702;11.030;2023-05-10T14:34:34;101048.38;;;13.20;95.91
55077;BME280;40971;44.702;11.030;2023-05-10T14:44:37;101038.63;;;13.20;95.74
55077;BME280;40971;44.702;11.030;2023-05-10T14:54:39;101035.03;;;13.13;95.96
55077;BME280;40971;44.702;11.030;2023-05-10T15:04:42;101043.25;;;13.18;96.17
55077;BME280;40971;44.702;11.030;2023-05-10T15:14:43;101041.78;;;13.16;95.85
55077;BME280;40971;44.702;11.030;2023-05-10T15:24:46;101040.84;;;13.09;95.88
55077;BME280;40971;44.702;11.030;2023-05-10T15:34:49;101038.16;;;13.17;96.26
55077;BME280;40971;44.702;11.030;2023-05-10T15:44:53;101045.06;;;13.49;95.54
55077;BME280;40971;44.702;11.030;2023-05-10T15:54:54;101029.78;;;13.67;93.95
55077;BME280;40971;44.702;11.030;2023-05-10T16:04:55;101024.69;;;13.34;94.97
55077;BME280;40971;44.702;11.030;2023-05-10T16:14:57;101018.56;;;13.42;95.96
55077;BME280;40971;44.702;11.030;2023-05-10T16:25:01;101024.69;;;13.34;96.58
55077;BME280;40971;44.702;11.030;2023-05-10T16:35:03;101009.69;;;13.58;96.27
55077;BME280;40971;44.702;11.030;2023-05-10T16:45:05;101007.44;;;13.47;96.19
55077;BME280;40971;44.702;11.030;2023-05-10T16:55:08;101006.19;;;13.34;96.32
55077;BME280;40971;44.702;11.030;2023-05-10T17:05:12;101023.22;;;13.32;95.99
55077;BME280;40971;44.702;11.030;2023-05-10T17:15:13;101014.53;;;13.15;96.40
55077;BME280;40971;44.702;11.030;2023-05-10T17:25:17;101013.53;;;13.24;96.15
55077;BME280;40971;44.702;11.030;2023-05-10T17:35:19;101027.59;;;13.17;96.75
55077;BME280;40971;44.702;11.030;2023-05-10T17:45:22;101016.38;;;13.07;96.79
55077;BME280;40971;44.702;11.030;2023-05-10T17:55:23;101018.06;;;13.00;97.14
55077;BME280;40971;44.702;11.030;2023-05-10T18:05:25;101014.28;;;12.94;97.13
55077;BME280;40971;44.702;11.030;2023-05-10T18:15:26;101032.13;;;12.92;97.42
55077;BME280;40971;44.702;11.030;2023-05-10T18:25:28;101032.16;;;12.84;98.16
55077;BME280;40971;44.702;11.030;2023-05-10T18:35:33;101038.44;;;12.75;98.98
55077;BME280;40971;44.702;11.030;2023-05-10T18:45:38;101041.91;;;12.67;99.43
55077;BME280;40971;44.702;11.030;2023-05-10T18:55:42;101041.78;;;12.61;100.00
55077;BME280;40971;44.702;11.030;2023-05-10T19:05:47;101042.72;;;12.68;100.00
55077;BME280;40971;44.702;11.030;2023-05-10T19:16:11;101037.44;;;12.68;100.00
55077;BME280;40971;44.702;11.030;2023-05-10T19:26:13;101050.31;;;12.63;100.00
55077;BME280;40971;44.702;11.030;2023-05-10T19:36:15;101055.59;;;12.63;100.00
55077;BME280;40971;44.702;11.030;2023-05-10T19:46:18;101047.38;;;12.58;100.00
55077;BME280;40971;44.702;11.030;2023-05-10T19:56:21;101050.03;;;12.50;99.59
55077;BME280;40971;44.702;11.030;2023-05-10T20:06:23;101052.03;;;12.48;99.66
55077;BME280;40971;44.702;11.030;2023-05-10T20:16:25;101048.69;;;12.46;99.15
55077;BME280;40971;44.702;11.030;2023-05-10T20:26:27;101036.50;;;12.53;100.00
55077;BME280;40971;44.702;11.030;2023-05-10T20:36:29;101049.72;;;12.45;99.61
55077;BME280;40971;44.702;11.030;2023-05-10T20:46:32;101049.19;;;12.49;99.75
55077;BME280;40971;44.702;11.030;2023-05-10T20:56:34;101053.00;;;12.39;99.13
55077;BME280;40971;44.702;11.030;2023-05-10T21:06:35;101050.06;;;12.34;100.00
55077;BME280;40971;44.702;11.030;2023-05-10T21:16:38;101040.81;;;12.30;100.00
55077;BME280;40971;44.702;11.030;2023-05-10T21:26:40;101031.59;;;12.25;100.00
55077;BME280;40971;44.702;11.030;2023-05-10T21:36:42;101032.28;;;12.19;100.00
55077;BME280;40971;44.702;11.030;2023-05-10T21:46:45;101034.56;;;12.31;100.00
55077;BME280;40971;44.702;11.030;2023-05-10T21:56:49;101045.91;;;12.31;100.00
55077;BME280;40971;44.702;11.030;2023-05-10T22:06:50;101038.50;;;12.26;100.00
55077;BME280;40971;44.702;11.030;2023-05-10T22:16:52;101036.19;;;12.32;100.00
55077;BME280;40971;44.702;11.030;2023-05-10T22:26:55;101033.72;;;12.38;100.00
55077;BME280;40971;44.702;11.030;2023-05-10T22:36:57;101028.47;;;12.30;100.00
55077;BME280;40971;44.702;11.030;2023-05-10T22:47:02;101043.13;;;12.33;100.00
55077;BME280;40971;44.702;11.030;2023-05-10T22:57:05;101035.88;;;12.35;100.00
55077;BME280;40971;44.702;11.030;2023-05-10T23:07:08;101037.69;;;12.26;100.00
55077;BME280;40971;44.702;11.030;2023-05-10T23:17:10;101025.84;;;12.06;100.00
55077;BME280;40971;44.702;11.030;2023-05-10T23:27:11;101016.94;;;12.23;100.00
55077;BME280;40971;44.702;11.030;2023-05-10T23:37:14;101029.63;;;12.27;100.00
55077;BME280;40971;44.702;11.030;2023-05-10T23:47:15;101014.47;;;12.21;100.00
55077;BME280;40971;44.702;11.030;2023-05-10T23:57:16;101013.81;;;12.27;99.92
